Terminal Aerodrome Forecast
Issued by NWS

Home | Current Version | Previous Version | Text Only | Print | Product List | Glossary On
Versions: 1 2 3 4 5 6 7 8 9 10 11 12 13 14 15 16 17 18 19
000
FTUS46 KMTR 261100
TAFSNS
TAF
KSNS 261135Z 2612/2712 22008KT P6SM SKC
     FM261700 26015G22KT P6SM SKC
     FM270200 26010G15KT P6SM SCT012
     FM270500 24005KT P6SM BKN015=

USA.gov is the U.S. government's official web portal to all federal, state and local government web resources and services.